createdAt,value
2023-02-13T00:00:09.712Z,32.00
2023-02-13T00:02:36.150Z,33.10
2023-02-13T00:05:02.605Z,30.92
2023-02-13T00:07:29.000Z,38.97
2023-02-13T00:09:55.313Z,32.05
2023-02-13T00:12:21.629Z,32.30
2023-02-13T00:14:48.010Z,33.67
2023-02-13T00:17:14.448Z,34.78
2023-02-13T00:19:40.844Z,34.38
2023-02-13T00:22:07.251Z,34.35
2023-02-13T00:24:33.580Z,34.92
2023-02-13T00:27:00.034Z,34.47
2023-02-13T00:29:26.479Z,35.08
2023-02-13T00:31:52.906Z,33.58
2023-02-13T00:34:19.419Z,35.05
2023-02-13T00:36:45.772Z,34.72
2023-02-13T00:39:12.273Z,33.95
2023-02-13T00:41:39.132Z,34.22
2023-02-13T00:44:05.600Z,37.17
2023-02-13T00:46:32.096Z,32.95
2023-02-13T00:48:58.561Z,33.28
2023-02-13T00:51:24.985Z,33.55
2023-02-13T00:53:51.346Z,35.75
2023-02-13T00:56:17.760Z,33.20
2023-02-13T00:58:44.195Z,31.67
2023-02-13T01:01:10.715Z,33.50
2023-02-13T01:03:37.114Z,33.17
2023-02-13T01:06:03.590Z,32.25
2023-02-13T01:08:30.047Z,35.15
2023-02-13T01:10:56.678Z,34.90
2023-02-13T01:13:23.242Z,33.30
2023-02-13T01:15:50.390Z,33.25
2023-02-13T01:18:17.636Z,34.63
2023-02-13T01:20:44.285Z,33.28
2023-02-13T01:23:10.984Z,37.25
2023-02-13T01:25:41.493Z,35.38
2023-02-13T01:28:08.162Z,34.05
2023-02-13T01:30:34.603Z,36.00
2023-02-13T01:33:00.945Z,37.47
2023-02-13T01:35:27.368Z,33.60
2023-02-13T01:37:53.791Z,34.05
2023-02-13T01:40:20.238Z,31.23
2023-02-13T01:42:46.623Z,36.85
2023-02-13T01:45:26.675Z,32.55
2023-02-13T01:47:55.812Z,35.88
2023-02-13T01:50:27.933Z,33.85
2023-02-13T01:52:59.396Z,34.78
2023-02-13T01:55:26.259Z,38.65
2023-02-13T01:57:54.701Z,32.40
2023-02-13T02:00:21.271Z,36.47
2023-02-13T02:02:50.753Z,36.75
2023-02-13T02:05:18.301Z,35.15
2023-02-13T02:07:45.400Z,34.90
2023-02-13T02:10:14.176Z,33.50
2023-02-13T02:12:46.701Z,37.53
2023-02-13T02:15:13.285Z,37.05
2023-02-13T02:17:39.769Z,37.53
2023-02-13T02:20:17.246Z,34.80
2023-02-13T02:23:03.410Z,34.40
2023-02-13T02:25:35.765Z,34.25
2023-02-13T02:28:17.527Z,34.35
2023-02-13T02:30:43.912Z,38.17
2023-02-13T02:33:30.954Z,35.85
2023-02-13T02:35:57.257Z,34.67
2023-02-13T02:38:43.296Z,34.50
2023-02-13T02:41:41.322Z,34.95
2023-02-13T02:44:26.689Z,36.35
2023-02-13T02:47:28.567Z,34.10
2023-02-13T02:50:01.980Z,35.08
2023-02-13T02:52:40.425Z,37.40
2023-02-13T02:55:13.982Z,35.88
2023-02-13T02:58:14.078Z,35.67
2023-02-13T03:01:00.797Z,35.63
2023-02-13T03:03:46.526Z,33.58
2023-02-13T03:06:15.803Z,27.20
2023-02-13T03:09:02.439Z,37.45
2023-02-13T03:11:47.566Z,42.58
2023-02-13T03:14:16.987Z,42.00
2023-02-13T03:17:02.180Z,42.80
2023-02-13T03:19:51.412Z,42.05
2023-02-13T03:22:28.523Z,35.80
2023-02-13T03:25:10.367Z,36.63
2023-02-13T03:28:01.411Z,35.85
2023-02-13T03:30:57.665Z,33.13
2023-02-13T03:33:56.470Z,36.92
2023-02-13T03:36:50.861Z,38.85
2023-02-13T03:39:29.435Z,36.00
2023-02-13T03:42:02.720Z,34.75
2023-02-13T03:44:33.208Z,39.45
2023-02-13T03:47:00.531Z,37.08
2023-02-13T03:49:51.822Z,34.65
2023-02-13T03:52:21.128Z,36.95
2023-02-13T03:55:15.111Z,36.17
2023-02-13T03:58:02.242Z,34.90
2023-02-13T04:00:30.852Z,36.08
2023-02-13T04:03:01.049Z,36.53
2023-02-13T04:05:29.591Z,36.28
2023-02-13T04:07:55.965Z,34.67
2023-02-13T04:10:24.832Z,32.90
2023-02-13T04:12:57.689Z,35.35
2023-02-13T04:15:24.017Z,34.95
2023-02-13T04:17:53.125Z,33.10
2023-02-13T04:20:19.685Z,35.47
2023-02-13T04:22:46.848Z,35.75
2023-02-13T04:25:15.418Z,36.38
2023-02-13T04:27:41.797Z,36.08
2023-02-13T04:30:09.148Z,35.78
2023-02-13T04:32:35.551Z,36.60
2023-02-13T04:35:02.025Z,33.65
2023-02-13T04:37:28.516Z,34.22
2023-02-13T04:39:54.910Z,34.95
2023-02-13T04:42:21.250Z,35.92
2023-02-13T04:44:47.606Z,37.13
2023-02-13T04:47:14.031Z,32.10
2023-02-13T04:49:40.348Z,35.53
2023-02-13T04:52:06.673Z,33.30
2023-02-13T04:54:33.052Z,35.00
2023-02-13T04:56:59.429Z,36.25
2023-02-13T04:59:25.733Z,34.75
2023-02-13T05:01:53.021Z,36.33
2023-02-13T05:04:19.515Z,35.83
2023-02-13T05:06:45.929Z,35.97
2023-02-13T05:09:12.446Z,34.75
2023-02-13T05:11:38.899Z,32.92
2023-02-13T05:14:05.217Z,34.95
2023-02-13T05:16:31.632Z,36.03
2023-02-13T05:18:58.062Z,34.92
2023-02-13T05:21:43.249Z,35.38
2023-02-13T05:24:09.580Z,34.20
2023-02-13T05:26:35.901Z,34.40
2023-02-13T05:29:20.605Z,31.60
2023-02-13T05:31:47.986Z,31.95
2023-02-13T05:34:14.699Z,35.03
2023-02-13T05:36:41.108Z,32.88
2023-02-13T05:39:07.505Z,33.78
2023-02-13T05:41:33.885Z,33.13
2023-02-13T05:44:00.349Z,27.67
2023-02-13T05:46:26.881Z,31.17
2023-02-13T05:48:53.249Z,25.35
2023-02-13T05:51:19.933Z,26.17
2023-02-13T05:53:46.502Z,35.45
2023-02-13T05:56:12.872Z,22.10
2023-02-13T05:58:39.272Z,25.38
2023-02-13T06:01:05.637Z,22.02
2023-02-13T06:03:32.531Z,28.65
2023-02-13T06:05:59.460Z,26.20
2023-02-13T06:08:26.117Z,30.35
2023-02-13T06:10:52.475Z,25.17
2023-02-13T06:13:19.284Z,26.20
2023-02-13T06:15:45.975Z,30.05
2023-02-13T06:18:12.384Z,28.35
2023-02-13T06:20:38.860Z,25.45
2023-02-13T06:23:05.478Z,25.83
2023-02-13T06:25:31.798Z,30.35
2023-02-13T06:27:58.228Z,29.25
2023-02-13T06:30:24.616Z,24.38
2023-02-13T06:32:51.095Z,14.90
2023-02-13T06:35:17.768Z,21.02
2023-02-13T06:37:44.295Z,28.70
2023-02-13T06:40:11.101Z,27.85
2023-02-13T06:42:37.454Z,23.13
2023-02-13T06:45:03.944Z,20.95
2023-02-13T06:47:30.258Z,26.00
2023-02-13T06:49:56.849Z,23.88
2023-02-13T06:52:23.367Z,25.30
2023-02-13T06:54:49.694Z,24.83
2023-02-13T06:57:16.401Z,25.77
2023-02-13T06:59:43.215Z,23.17
2023-02-13T07:02:12.774Z,28.40
2023-02-13T07:04:39.202Z,21.67
2023-02-13T07:07:05.679Z,22.33
2023-02-13T07:09:32.434Z,29.75
2023-02-13T07:11:58.893Z,24.77
2023-02-13T07:14:25.215Z,25.58
2023-02-13T07:16:51.578Z,24.17
2023-02-13T07:19:17.964Z,20.33
2023-02-13T07:21:44.431Z,28.02
2023-02-13T07:24:10.844Z,20.13
2023-02-13T07:26:37.176Z,18.33
2023-02-13T07:29:11.636Z,31.58
2023-02-13T07:31:39.354Z,25.73
2023-02-13T07:34:05.866Z,28.67
2023-02-13T07:36:32.218Z,22.58
2023-02-13T07:38:58.573Z,24.92
2023-02-13T07:41:27.716Z,25.38
2023-02-13T07:43:54.602Z,25.08
2023-02-13T07:46:21.185Z,20.80
2023-02-13T07:48:47.643Z,26.33
2023-02-13T07:51:14.193Z,27.35
2023-02-13T07:53:40.597Z,28.17
2023-02-13T07:56:07.658Z,32.03
2023-02-13T07:58:34.334Z,28.00
2023-02-13T08:01:05.861Z,29.38
2023-02-13T08:03:32.365Z,27.17
2023-02-13T08:05:59.140Z,31.45
2023-02-13T08:08:25.713Z,24.90
2023-02-13T08:11:10.777Z,30.10
2023-02-13T08:13:37.499Z,24.65
2023-02-13T08:16:03.945Z,30.45
2023-02-13T08:18:30.302Z,23.52
2023-02-13T08:20:56.682Z,27.27
2023-02-13T08:23:23.128Z,28.65
2023-02-13T08:25:49.852Z,30.38
2023-02-13T08:28:16.530Z,27.15
2023-02-13T08:30:42.980Z,32.03
2023-02-13T08:33:09.314Z,26.30
2023-02-13T08:35:35.739Z,30.58
2023-02-13T08:38:03.331Z,24.10
2023-02-13T08:40:29.658Z,26.95
2023-02-13T08:43:03.324Z,28.00
2023-02-13T08:45:30.141Z,26.92
2023-02-13T08:47:57.605Z,32.15
2023-02-13T08:50:24.341Z,31.10
2023-02-13T08:52:50.703Z,35.15
2023-02-13T08:55:17.071Z,30.50
2023-02-13T08:57:43.501Z,29.75
2023-02-13T09:00:10.092Z,33.15
2023-02-13T09:02:36.584Z,31.40
2023-02-13T09:05:03.076Z,37.35
2023-02-13T09:07:29.544Z,33.42
2023-02-13T09:09:55.857Z,30.13
2023-02-13T09:12:22.202Z,16.38
2023-02-13T09:14:48.628Z,29.15
2023-02-13T09:17:18.399Z,33.53
2023-02-13T09:19:45.639Z,34.15
2023-02-13T09:22:11.962Z,33.08
2023-02-13T09:24:38.371Z,37.17
2023-02-13T09:27:05.197Z,34.17
2023-02-13T09:29:33.829Z,33.67
2023-02-13T09:32:00.458Z,32.50
2023-02-13T09:34:27.097Z,30.27
2023-02-13T09:36:53.906Z,29.10
2023-02-13T09:39:20.550Z,25.80
2023-02-13T09:41:48.330Z,28.27
2023-02-13T09:44:33.767Z,31.73
2023-02-13T09:47:03.205Z,28.90
2023-02-13T09:49:32.235Z,39.45
2023-02-13T09:51:58.817Z,38.65
2023-02-13T09:54:26.703Z,38.75
2023-02-13T09:56:55.058Z,34.88
2023-02-13T09:59:39.600Z,42.83
2023-02-13T10:02:24.700Z,38.85
2023-02-13T10:05:03.837Z,41.80
2023-02-13T10:07:49.656Z,39.85
2023-02-13T10:10:21.664Z,38.03
2023-02-13T10:13:07.070Z,39.35
2023-02-13T10:15:36.184Z,31.90
2023-02-13T10:18:09.072Z,22.75
2023-02-13T10:20:47.264Z,31.25
2023-02-13T10:23:27.715Z,35.25
2023-02-13T10:26:08.548Z,37.60
2023-02-13T10:28:40.388Z,39.05
2023-02-13T10:31:12.474Z,23.20
2023-02-13T10:33:44.159Z,36.03
2023-02-13T10:36:10.490Z,37.00
2023-02-13T10:38:52.226Z,36.53
2023-02-13T10:41:23.970Z,38.22
2023-02-13T10:43:59.352Z,38.15
2023-02-13T10:46:29.877Z,33.97
2023-02-13T10:49:25.754Z,28.65
2023-02-13T10:52:00.765Z,37.10
2023-02-13T10:54:27.109Z,26.77
2023-02-13T10:57:12.113Z,35.78
2023-02-13T10:59:50.821Z,19.20
2023-02-13T11:02:23.400Z,39.60
2023-02-13T11:04:50.858Z,37.90
2023-02-13T11:07:18.555Z,36.20
2023-02-13T11:09:47.565Z,40.75
2023-02-13T11:12:28.219Z,37.00
2023-02-13T11:14:59.206Z,33.08
2023-02-13T11:17:26.448Z,40.65
2023-02-13T11:19:54.241Z,28.50
2023-02-13T11:22:29.587Z,36.08
2023-02-13T11:24:58.396Z,44.63
2023-02-13T11:27:27.716Z,36.40
2023-02-13T11:29:58.624Z,41.85
2023-02-13T11:32:26.730Z,43.72
2023-02-13T11:34:54.772Z,39.80
2023-02-13T11:37:21.237Z,31.90
2023-02-13T11:39:51.099Z,39.28
2023-02-13T11:42:20.630Z,40.13
2023-02-13T11:44:53.910Z,38.85
2023-02-13T11:47:34.069Z,40.10
2023-02-13T11:50:00.572Z,33.70
2023-02-13T11:52:32.379Z,34.03
2023-02-13T11:55:05.355Z,40.88
2023-02-13T11:57:33.416Z,36.08
2023-02-13T12:00:00.846Z,39.50
2023-02-13T12:02:28.723Z,41.33
2023-02-13T12:05:14.011Z,40.25
2023-02-13T12:07:40.985Z,38.15
2023-02-13T12:10:22.500Z,41.38
2023-02-13T12:12:55.354Z,37.75
2023-02-13T12:15:23.794Z,38.95
2023-02-13T12:17:57.678Z,25.48
2023-02-13T12:20:25.079Z,39.58
2023-02-13T12:22:54.263Z,21.60
2023-02-13T12:25:33.184Z,40.40
2023-02-13T12:28:02.398Z,34.72
2023-02-13T12:30:36.980Z,37.55
2023-02-13T12:33:14.091Z,27.85
2023-02-13T12:35:43.446Z,31.55
2023-02-13T12:38:33.138Z,34.88
2023-02-13T12:41:20.051Z,30.17
2023-02-13T12:43:52.402Z,41.70
2023-02-13T12:46:39.785Z,40.58
2023-02-13T12:49:06.519Z,46.78
2023-02-13T12:51:51.704Z,39.15
2023-02-13T12:54:25.576Z,37.42
2023-02-13T12:56:59.878Z,33.08
2023-02-13T12:59:28.290Z,41.55
2023-02-13T13:02:13.365Z,23.83
2023-02-13T13:04:51.904Z,34.10
2023-02-13T13:07:53.821Z,35.65
2023-02-13T13:10:29.269Z,33.40
2023-02-13T13:13:01.627Z,32.22
2023-02-13T13:15:34.297Z,20.00
2023-02-13T13:18:12.618Z,34.10
2023-02-13T13:20:57.858Z,32.90
2023-02-13T13:23:37.408Z,29.30
2023-02-13T13:26:14.712Z,19.30
2023-02-13T13:28:42.480Z,23.52
2023-02-13T13:31:10.495Z,32.70
2023-02-13T13:33:39.486Z,26.10
2023-02-13T13:36:05.981Z,26.98
2023-02-13T13:38:52.190Z,26.15
2023-02-13T13:48:53.040Z,22.08
2023-02-13T13:51:19.892Z,24.10
2023-02-13T13:54:01.488Z,22.35
2023-02-13T13:56:47.745Z,28.98
2023-02-13T14:04:25.156Z,23.88
2023-02-13T14:06:51.544Z,20.95
2023-02-13T14:09:27.246Z,22.83
2023-02-13T14:11:54.524Z,24.45
2023-02-13T14:14:27.008Z,30.23
2023-02-13T14:16:53.885Z,23.83
2023-02-13T14:19:29.333Z,26.80
2023-02-13T14:22:15.601Z,19.23
2023-02-13T14:27:20.729Z,21.83
2023-02-13T14:29:48.023Z,19.08
2023-02-13T14:32:34.682Z,22.40
2023-02-13T14:35:03.206Z,21.27
2023-02-13T14:37:31.848Z,24.65
2023-02-13T14:40:18.448Z,20.58
2023-02-13T14:42:46.099Z,22.25
2023-02-13T14:45:17.356Z,17.85
2023-02-13T14:47:53.493Z,31.67
2023-02-13T14:50:23.280Z,22.05
2023-02-13T14:52:50.329Z,21.85
2023-02-13T14:55:17.073Z,25.17
2023-02-13T14:57:45.086Z,22.75
2023-02-13T15:00:17.520Z,20.92
2023-02-13T15:02:49.386Z,18.05
2023-02-13T15:05:20.081Z,23.45
2023-02-13T15:07:48.365Z,18.67
2023-02-13T15:10:20.719Z,21.00
2023-02-13T15:12:56.098Z,22.10
2023-02-13T15:15:24.269Z,21.75
2023-02-13T15:17:52.924Z,20.88
2023-02-13T15:20:24.908Z,24.42
2023-02-13T15:22:51.668Z,27.33
2023-02-13T15:25:29.504Z,25.73
2023-02-13T15:27:56.642Z,22.77
2023-02-13T15:30:27.550Z,25.58
2023-02-13T15:33:14.267Z,25.15
2023-02-13T15:35:40.990Z,23.15
2023-02-13T15:38:19.276Z,20.55
2023-02-13T15:40:45.656Z,22.13
2023-02-13T15:43:21.267Z,21.13
2023-02-13T15:45:47.620Z,21.85
2023-02-13T15:48:17.430Z,20.80
2023-02-13T15:50:44.416Z,19.10
2023-02-13T15:53:15.459Z,14.20
2023-02-13T15:55:41.962Z,23.50
2023-02-13T15:58:12.651Z,21.08
2023-02-13T16:00:42.403Z,23.60
2023-02-13T16:03:14.516Z,23.33
2023-02-13T16:05:41.667Z,23.95
2023-02-13T16:08:26.557Z,22.42
2023-02-13T16:11:09.652Z,23.83
2023-02-13T16:13:36.022Z,23.42
2023-02-13T16:16:07.909Z,20.45
2023-02-13T16:18:35.000Z,23.13
2023-02-13T16:21:03.506Z,24.95
2023-02-13T16:23:30.924Z,24.67
2023-02-13T16:26:01.230Z,24.77
2023-02-13T16:28:31.662Z,23.38
2023-02-13T16:30:58.222Z,22.48
2023-02-13T16:33:27.907Z,27.38
2023-02-13T16:35:57.064Z,24.52
2023-02-13T16:38:41.971Z,22.83
2023-02-13T16:41:17.637Z,22.13
2023-02-13T16:43:44.880Z,24.48
2023-02-13T16:46:14.388Z,19.02
2023-02-13T16:48:44.738Z,24.58
2023-02-13T16:51:11.654Z,23.58
2023-02-13T16:53:38.284Z,19.88
2023-02-13T16:56:07.275Z,22.10
2023-02-13T16:58:33.727Z,20.80
2023-02-13T17:01:01.884Z,19.08
2023-02-13T17:03:28.349Z,23.67
2023-02-13T17:05:57.578Z,22.75
2023-02-13T17:08:23.952Z,21.67
2023-02-13T17:11:04.105Z,20.65
2023-02-13T17:13:30.618Z,20.98
2023-02-13T17:15:58.299Z,25.42
2023-02-13T17:18:24.743Z,21.00
2023-02-13T17:20:51.125Z,22.38
2023-02-13T17:23:18.690Z,23.50
2023-02-13T17:25:47.443Z,21.10
2023-02-13T17:28:15.789Z,37.30
2023-02-13T17:30:42.745Z,28.25
2023-02-13T17:33:14.202Z,23.63
2023-02-13T17:35:40.526Z,27.25
2023-02-13T17:38:08.785Z,24.23
2023-02-13T17:40:35.337Z,24.40
2023-02-13T17:43:01.976Z,21.25
2023-02-13T17:45:29.696Z,23.25
2023-02-13T17:47:57.769Z,22.70
2023-02-13T17:50:24.822Z,22.67
2023-02-13T17:52:51.482Z,19.48
2023-02-13T17:55:24.899Z,22.15
2023-02-13T17:57:51.993Z,18.38
2023-02-13T18:00:20.215Z,20.35
2023-02-13T18:02:47.896Z,23.48
2023-02-13T18:05:15.011Z,22.48
2023-02-13T18:07:43.110Z,23.83
2023-02-13T18:10:14.100Z,24.67
2023-02-13T18:12:40.584Z,22.27
2023-02-13T18:15:07.459Z,25.80
2023-02-13T18:17:33.885Z,23.27
2023-02-13T18:20:00.335Z,20.23
2023-02-13T18:22:26.637Z,9.75
2023-02-13T18:24:53.468Z,12.82
2023-02-13T18:27:19.853Z,21.17
2023-02-13T18:29:46.463Z,19.98
2023-02-13T18:32:13.020Z,23.83
2023-02-13T18:34:39.491Z,23.17
2023-02-13T18:37:06.305Z,26.95
2023-02-13T18:39:32.860Z,26.15
2023-02-13T18:41:59.257Z,22.70
2023-02-13T18:44:28.761Z,21.60
2023-02-13T18:46:55.514Z,21.67
2023-02-13T18:49:21.899Z,22.00
2023-02-13T18:51:48.287Z,24.70
2023-02-13T18:54:14.699Z,23.33
2023-02-13T18:56:41.054Z,23.65
2023-02-13T18:59:07.403Z,26.70
2023-02-13T19:01:35.426Z,22.08
2023-02-13T19:04:02.921Z,25.92
2023-02-13T19:06:29.731Z,22.80
2023-02-13T19:08:56.409Z,22.38
2023-02-13T19:11:24.388Z,26.13
2023-02-13T19:13:55.091Z,22.75
2023-02-13T19:16:21.918Z,23.60
2023-02-13T19:18:53.251Z,21.50
2023-02-13T19:21:24.089Z,23.65
2023-02-13T19:23:51.016Z,23.05
2023-02-13T19:26:18.754Z,24.98
2023-02-13T19:28:45.484Z,24.58
2023-02-13T19:31:13.842Z,22.38
2023-02-13T19:33:40.800Z,22.20
2023-02-13T19:36:09.581Z,21.73
2023-02-13T19:38:36.450Z,28.67
2023-02-13T19:41:04.617Z,22.80
2023-02-13T19:43:31.034Z,22.02
2023-02-13T19:45:57.373Z,22.52
2023-02-13T19:48:23.722Z,23.70
2023-02-13T19:50:50.068Z,21.52
2023-02-13T19:53:16.481Z,21.65
2023-02-13T19:55:42.820Z,24.58
2023-02-13T19:58:09.223Z,22.95
2023-02-13T20:00:35.540Z,28.13
2023-02-13T20:03:05.056Z,23.25
2023-02-13T20:05:32.357Z,22.42
2023-02-13T20:07:58.731Z,23.67
2023-02-13T20:10:25.277Z,20.05
2023-02-13T20:12:54.311Z,27.30
2023-02-13T20:15:20.955Z,22.75
2023-02-13T20:17:47.416Z,17.40
2023-02-13T20:20:13.938Z,24.83
2023-02-13T20:22:40.400Z,21.10
2023-02-13T20:25:06.884Z,12.38
2023-02-13T20:27:34.641Z,21.55
2023-02-13T20:30:07.426Z,23.35
2023-02-13T20:32:34.282Z,24.73
2023-02-13T20:35:00.862Z,22.17
2023-02-13T20:37:27.262Z,22.50
2023-02-13T20:39:53.659Z,21.83
2023-02-13T20:42:20.006Z,23.88
2023-02-13T20:44:46.869Z,26.08
2023-02-13T20:47:13.315Z,24.20
2023-02-13T20:49:39.624Z,22.83
2023-02-13T20:52:06.038Z,24.33
2023-02-13T20:54:32.410Z,23.02
2023-02-13T20:56:58.859Z,24.50
2023-02-13T20:59:25.301Z,26.30
2023-02-13T21:01:51.661Z,25.25
2023-02-13T21:04:20.020Z,26.48
2023-02-13T21:06:46.945Z,25.17
2023-02-13T21:09:13.478Z,23.60
2023-02-13T21:11:41.229Z,23.92
2023-02-13T21:14:08.080Z,24.23
2023-02-13T21:16:35.997Z,22.08
2023-02-13T21:19:05.350Z,21.38
2023-02-13T21:21:32.436Z,25.35
2023-02-13T21:24:00.723Z,21.27
2023-02-13T21:26:27.449Z,26.08
2023-02-13T21:28:54.601Z,25.80
2023-02-13T21:31:27.836Z,21.90
2023-02-13T21:33:56.758Z,24.38
2023-02-13T21:36:23.071Z,20.67
2023-02-13T21:38:49.650Z,23.58
2023-02-13T21:41:16.962Z,24.55
2023-02-13T21:43:46.673Z,20.75
2023-02-13T21:46:20.659Z,20.95
2023-02-13T21:48:47.711Z,24.08
2023-02-13T21:51:15.446Z,18.40
2023-02-13T21:53:42.269Z,27.23
2023-02-13T21:56:11.058Z,21.70
2023-02-13T21:58:38.287Z,27.63
2023-02-13T22:01:23.867Z,19.92
2023-02-13T22:03:51.834Z,25.25
2023-02-13T22:06:19.937Z,20.42
2023-02-13T22:08:46.577Z,22.58
2023-02-13T22:11:12.976Z,21.42
2023-02-13T22:13:39.406Z,17.58
2023-02-13T22:16:07.137Z,20.70
2023-02-13T22:18:35.202Z,22.35
2023-02-13T22:21:06.118Z,18.70
2023-02-13T22:23:36.925Z,21.52
2023-02-13T22:26:03.933Z,23.80
2023-02-13T22:28:30.745Z,26.40
2023-02-13T22:30:57.790Z,21.55
2023-02-13T22:33:24.677Z,22.55
2023-02-13T22:35:51.104Z,16.00
2023-02-13T22:38:17.541Z,18.58
2023-02-13T22:40:44.326Z,20.58
2023-02-13T22:43:10.667Z,23.13
2023-02-13T22:45:37.635Z,16.95
2023-02-13T22:48:04.958Z,23.38
2023-02-13T22:50:31.539Z,21.52
2023-02-13T22:52:57.892Z,21.85
2023-02-13T22:55:24.442Z,20.38
2023-02-13T22:57:54.251Z,16.90
2023-02-13T23:00:22.357Z,15.38
2023-02-13T23:02:49.630Z,17.80
2023-02-13T23:05:16.263Z,23.05
2023-02-13T23:07:42.649Z,19.60
2023-02-13T23:10:09.232Z,22.08
2023-02-13T23:12:45.570Z,24.92
2023-02-13T23:15:13.865Z,22.00
2023-02-13T23:17:59.055Z,19.70
2023-02-13T23:20:25.510Z,19.58
2023-02-13T23:22:53.912Z,16.88
2023-02-13T23:25:21.191Z,13.45
2023-02-13T23:27:47.724Z,9.82
2023-02-13T23:30:15.180Z,10.40
2023-02-13T23:32:41.685Z,7.32
2023-02-13T23:35:09.382Z,8.00
2023-02-13T23:37:35.746Z,9.00
2023-02-13T23:40:02.201Z,9.88
2023-02-13T23:42:28.849Z,8.23
2023-02-13T23:44:55.320Z,8.25
2023-02-13T23:47:21.765Z,12.18
2023-02-13T23:49:48.085Z,11.60
2023-02-13T23:52:14.427Z,11.40
2023-02-13T23:54:40.828Z,10.13
2023-02-13T23:57:07.394Z,13.93
2023-02-13T23:59:33.763Z,13.32
